• Join FlightAware (Why Join?)
  • Login
  • US Flag 
02:39AM EST


 

Airport Tracker/Info


-or-


 

Live Flight TrackerFlight Track Log ✈ CPT7773 ✈ 20-Jun-2013 ✈ KCOD - KCPR

Flight Track Log - Related Links

Times and Time Zones

All times are in EDT time to prevent confusion due to time zone crossing. See the CPT7773 flight status page for this flight to view local times or setup timezone preferences in your user account.

Time Position Orientation Groundspeed Altitude Reporting Facility
EDT Latitude Longitude Course Direction KTS MPH feet Rate Location/Type
08:16PM 44.3791 -108.7094 120° Southeast  Level FlightAware Approximate
08:17PM 44.3573 -108.6570 120° Southeast  Level FlightAware Approximate
08:18PM 44.3355 -108.6046 120° Southeast  Level FlightAware Approximate
08:19PM 44.3137 -108.5522 120° Southeast  Level FlightAware Approximate
08:20PM 44.2918 -108.4998 120° Southeast  Level FlightAware Approximate
08:21PM 44.2699 -108.4475 120° Southeast  Level FlightAware Approximate
08:22PM 44.2473 -108.3960 133° Southeast  Level FlightAware Approximate
08:23PM 44.2178 -108.3516 133° Southeast  Level FlightAware Approximate
08:24PM 44.1883 -108.3073 133° Southeast  Level FlightAware Approximate
08:25PM 44.1588 -108.2630 133° Southeast  Level FlightAware Approximate
08:26PM 44.1292 -108.2188 133° Southeast  Level FlightAware Approximate
08:27PM 44.0997 -108.1745 133° Southeast  Level FlightAware Approximate
08:28PM 44.0703 -108.1302 133° Southeast  Level FlightAware Approximate
08:29PM 44.0408 -108.0859 133° Southeast  Level FlightAware Approximate
08:30PM 44.0113 -108.0417 133° Southeast  Level FlightAware Approximate
08:31PM 43.9818 -107.9975 133° Southeast  Level FlightAware Approximate
08:32PM 43.9523 -107.9534 133° Southeast  Level FlightAware Approximate
08:33PM 43.9300 -107.9018 120° Southeast  Level FlightAware Approximate
08:34PM 43.9083 -107.8497 120° Southeast  Level FlightAware Approximate
08:35PM 43.8865 -107.7976 120° Southeast  Level FlightAware Approximate
08:36PM 43.8644 -107.7459 128° Southeast  Level FlightAware Approximate
08:37PM 43.8377 -107.6985 128° Southeast  Level FlightAware Approximate
08:38PM 43.8110 -107.6511 128° Southeast  Level FlightAware Approximate
08:39PM 43.7843 -107.6037 128° Southeast  Level FlightAware Approximate
08:40PM 43.7576 -107.5564 128° Southeast  Level FlightAware Approximate
08:40PM 43.8206 -107.6692 125° Southeast 160 184 11,000  Level Denver Center
08:41PM 43.7309 -107.5091 128° Southeast  Level FlightAware Approximate
08:42PM 43.7864 -107.6231 136° Southeast  Level Estimated
08:42PM 43.7041 -107.4619 128° Southeast  Level FlightAware Approximate
08:43PM 43.6773 -107.4147 128° Southeast  Level FlightAware Approximate
08:44PM 43.6505 -107.3676 128° Southeast  Level FlightAware Approximate
08:45PM 43.6259 -107.3183 125° Southeast  Level FlightAware Approximate
08:46PM 43.6012 -107.2690 125° Southeast  Level FlightAware Approximate
08:49PM 43.5684 -107.3309 136° Southeast  Level Estimated
08:50PM 43.5372 -107.2893 136° Southeast  Level Estimated
08:51PM 43.5059 -107.2478 136° Southeast  Level Estimated
08:51PM 43.4833 -107.0192 136° Southeast 157 181 11,000  Level Denver Center
08:52PM 43.4747 -107.2063 136° Southeast  Level Estimated
08:52PM 43.4558 -106.9606 123° Southeast 163 188 11,000  Level Denver Center
08:53PM 43.4435 -107.1649 136° Southeast  Level Estimated
08:53PM 43.4325 -106.9139 125° Southeast 159 183 10,900  Level Denver Center
08:54PM 43.4122 -107.1235 136° Southeast  Level Estimated
08:54PM 43.4033 -106.8614 127° Southeast 156 180 11,000  Level Denver Center
08:55PM 43.3809 -107.0821 136° Southeast  Level Estimated
08:55PM 43.3789 -106.8150 126° Southeast 156 180 10,900  Level Denver Center
08:56PM 43.3496 -107.0408 136° Southeast  Level Estimated
08:56PM 43.3353 -106.7822 151° Southeast 152 175 10,100  Level Denver Center
08:57PM 43.2958 -106.7553 154° Southeast 158 182 10,000 -180 Descending Denver Center
08:58PM 43.2544 -106.7236 151° Southeast 156 180 9,800 -300 Descending Denver Center
08:59PM 43.2183 -106.6897 146° Southeast 160 184 9,500 -420 Descending Denver Center
09:00PM 43.1778 -106.6494 144° Southeast 162 186 9,000 -420 Descending Denver Center
09:01PM 43.1419 -106.6125 143° Southeast 165 190 8,700 -420 Descending Denver Center
09:02PM 43.1008 -106.5697 143° Southeast 166 191 8,200 -480 Descending Denver Center
09:03PM 43.0639 -106.5333 144° Southeast 168 193 7,800 -360 Descending Denver Center
09:04PM 43.0194 -106.4925 146° Southeast 170 196 7,500 -540 Descending Denver Center
09:05PM 42.9794 -106.4625 151° Southeast 170 196 6,800 -720 Descending Denver Center
09:07PM 42.9554 -106.4116 123° Southeast  Level FlightAware Approximate
09:14PM 42.9000 -106.4500 216° Southwest  Level FlightAware Approximate
09:15PM 42.9080 -106.4644 216° Southwest  Level Estimated
09:16PM 42.9080 -106.4644 216° Southwest  Level Estimated